16 al 23/08: Inestable litoral, temperaturas agradables, luego FF

Avatar de Usuario
Ale de Castelar
Mensajes: 16554
Registrado: Sab Mar 03, 2012 12:25 pm
Ubicación: Caballito

16 al 23/08: Inestable litoral, temperaturas agradables, luego FF

Mensajepor Ale de Castelar » Dom Ago 16, 2015 1:27 pm

No sabia bien que nombre ponerle al seguimiento.

Amanecio hermoso en Capital, ahora 16,2 en OCBA

Avatar de Usuario
Juan José Frías
Mensajes: 287
Registrado: Sab Abr 19, 2014 8:15 pm
Ubicación: 26°31′00″S 61°10′00″O (Pampa del Infierno)-Chaco, Argentina.

Re: 16 al 22/08: Inestable litoral, temperaturas agradables

Mensajepor Juan José Frías » Dom Ago 16, 2015 2:28 pm

Por acá lluvia intensa con 13°. 8-)

Avatar de Usuario
Nicoo92
Mensajes: 547
Registrado: Sab Ene 04, 2014 2:47 am
Ubicación: Floresta (Cap. Fed.)

Re: 16 al 22/08: Inestable litoral, temperaturas agradables

Mensajepor Nicoo92 » Dom Ago 16, 2015 2:30 pm

16.8 en OCBA.

Avatar de Usuario
Marcelo_97
Mensajes: 2886
Registrado: Mar Nov 22, 2011 8:14 pm
Ubicación: Pontevedra, Merlo, Buenos Aires
Contactar:

Re: 16 al 22/08: Inestable litoral, temperaturas agradables

Mensajepor Marcelo_97 » Dom Ago 16, 2015 3:37 pm

4.6º C fue la mínima de hoy por acá...

Ahora hacen unos agradables 18º y el cielo con algunos cirrus.

Avatar de Usuario
Diecha
Mensajes: 4782
Registrado: Jue Ago 25, 2011 9:31 pm
Ubicación: Lomas de Zamora

Re: 16 al 22/08: Inestable litoral, temperaturas agradables

Mensajepor Diecha » Dom Ago 16, 2015 4:00 pm

Buenas tardes, en la región patagónica, las ráfagas vienen superando los 100 Km/h en varios puntos:

- Comodoro Rivadavia 15 hs: SAVC 161800Z 29040G60KT 260V340 CAVOK 14/02 Q0995 (ráfaga de 111 Km/h)
- Comodoro Rivadavia 14:41 hs: SAVC 161741Z 32036G62KT 260V330 CAVOK 13/M02 Q0996 (ráfaga de 115 Km/h)
- Comodoro Rivadavia 14 hs: SAVC 161700Z 29031G51KT 260V340 CAVOK 13/M02 Q0998 (ráfaga de 94 Km/h)
- Comodoro Rivadavia 13:34 hs: SAVC 161634Z 32018G32KT 260V010 CAVOK 13/M02 Q0999 (ráfaga de 59 Km/h)
- Comodoro Rivadavia 13 hs: SAVC 161600Z 29032G48KT 260V340 CAVOK 13/M02 Q1000 (ráfaga de 89 Km/h)
- Comodoro Rivadavia 12 hs: SAVC 161500Z 32027G46KT CAVOK 11/M00 Q1001 (ráfaga de 85 Km/h)

- Río Gallegos 15 hs: SAWG 161800Z 29037G52KT 270V320 9999 FEW035 SCT200 11/M00 Q0971 (ráfaga de 96 Km/h)
- Río Gallegos 13 hs: SAWG 161600Z 29039G59KT 9999 FEW035 11/M01 Q0972 (ráfaga de 109 Km/h)
- Río Gallegos 12 hs: SAWG 161500Z 29034G47KT CAVOK 10/M02 Q0974 (ráfaga de 87 Km/h)

- Río Grande 15 hs: SAWE 161800Z 29050G62KT 9999 FEW010 SCT024 09/05 Q0960 (ráfaga de 115 Km/h)
- Río Grande 14 hs: SAWE 161700Z 29050G68KT 9999 FEW010 SCT024 09/05 Q0961 (ráfaga de 126 Km/h)
- Río Grande 13 hs: SAWE 161600Z 29036G50KT 9999 SCT010 SCT024 08/05 Q0963 (ráfaga de 93 Km/h)
- Río Grande 12 hs: SAWE 161500Z 29037G49KT 9999 SCT010 SCT024 07/04 Q0964 (ráfaga de 91 Km/h)

Imagen

Imagen
SPOILER - El siguiente texto está oculto. Presioná en la barra para mostrarlo.
Imagen
Imagen
Imagen
Imagen
Última edición por Diecha el Dom Ago 16, 2015 4:15 pm, editado 1 vez en total.

Avatar de Usuario
NicodWilde
Mensajes: 14380
Registrado: Mié Ago 01, 2012 7:34 pm
Ubicación: Wilde, Buenos Aires

Re: 16 al 22/08: Inestable litoral, temperaturas agradables

Mensajepor NicodWilde » Dom Ago 16, 2015 4:09 pm

Un día típico de agosto. La mínima del OCBA se quedó en 7,1ºC. La temperatura en la EMA Ortúzar bajó un poco: 15,8ºC. Por acá se nubló.

En cuanto a las temperaturas, estos días son la nada misma como todo este mes. Pero el martes a la noche en el centro del país se instala un FF débil y pasajero que se mantendrá 2 días y la T bajará un par de grados
El frío polar es mi obsesión.

Nico

Avatar de Usuario
Ale de Castelar
Mensajes: 16554
Registrado: Sab Mar 03, 2012 12:25 pm
Ubicación: Caballito

Re: 16 al 22/08: Inestable litoral, temperaturas agradables

Mensajepor Ale de Castelar » Dom Ago 16, 2015 4:19 pm

Casi Huracanezco la presion en Ushuaia, con 942Hpa a nivel del mar.
Llueve con 7 grados ahi, pero se viene un desplome termico epico, con posibles nevadas.

Avatar de Usuario
Marcelo
Mensajes: 4971
Registrado: Jue Jul 30, 2009 3:42 pm
Ubicación: Lanús, Provincia de Buenos Aires

Re: 16 al 22/08: Inestable litoral, temperaturas agradables

Mensajepor Marcelo » Dom Ago 16, 2015 5:01 pm

Me pregunto cuál habrá sido la mínima presión registrada en el país (igualada al nivel del mar, por supuesto).
Lo que sí es que me sorprendería si hubiera ocurrido en un lugar distinto a Ushuaia/zonas aledañas.

Río Grande a las 14.00 y 15.00 reportó vientos de 92 km/h.

Avatar de Usuario
Diecha
Mensajes: 4782
Registrado: Jue Ago 25, 2011 9:31 pm
Ubicación: Lomas de Zamora

Re: 16 al 22/08: Inestable litoral, temperaturas agradables

Mensajepor Diecha » Dom Ago 16, 2015 6:28 pm

- Comodoro Rivadavia 18:35 hs: SAVC 162135Z 32041G64KT 7000 NSC 14/03 Q0993 (ráfaga de 119 Km/h)
- Comodoro Rivadavia 18:16 hs: SAVC 162116Z 29047G68KT 1000 DU SCT100 14/03 Q0990 (ráfaga de 126 Km/h)
- Comodoro Rivadavia 18 hs: SAVC 162100Z 29043G64KT 260V320 3000 DU SCT100 14/03 Q0991 (ráfaga de 119 Km/h)

- Río Gallegos 18 hs: SAWG 162100Z 29040G52KT 230V320 9999 FEW015 SCT080 BKN200 10/01 Q0968 (ráfaga de 96 Km/h)
- Río Grande 18 hs: SAWE 162100Z 29042G58KT 8000 RA SCT008 OVC016 07/06 Q0957 (ráfaga de 107 Km/h)
- Ushuaia 18 hs: SAWH 162100Z 29025G55KT 9000 VCSH BKN030 07/02 Q0949 RERA (ráfaga de 102 Km/h)

Imagen

Avatar de Usuario
Diecha
Mensajes: 4782
Registrado: Jue Ago 25, 2011 9:31 pm
Ubicación: Lomas de Zamora

Re: 16 al 22/08: Inestable litoral, temperaturas agradables

Mensajepor Diecha » Dom Ago 16, 2015 9:36 pm

- Comodoro Rivadavia 21 hs: SAVC 170000Z 32031G48KT CAVOK 12/M03 Q0994 (ráfaga de 89 Km/h)
- Comodoro Rivadavia 20 hs: SAVC 162300Z 34033G53KT CAVOK 14/M04 Q0994 (ráfaga de 98 Km/h)
- Comodoro Rivadavia 19:14 hs: SAVC 162214Z 32039G62KT 5000 DU NSC 14/M03 Q0991 (ráfaga de 115 Km/h)
- Comodoro Rivadavia 19 hs: SAVC 162200Z 34035G50KT CAVOK 14/M03 Q0994 (ráfaga de 93 Km/h)

- Ushuaia 21 hs: SAWH 170000Z 32011KT 9000 -SHRASN OVC018 02/M01 Q0957
- Ushuaia 20 hs: SAWH 162300Z 27028G63KT 9000 -SHRASN OVC015 05/01 Q0954 RERA (ráfaga de 117 Km/h)
- Ushuaia 19 hs: SAWH 162200Z 27030G55KT 9000 -RA OVC025 06/02 Q0953 (ráfaga de 102 Km/h)
- Ushuaia 18:29 hs: SAWH 162129Z 25040G55KT 3000 +RA OVC015 06/02 Q0950 (ráfaga de 102 Km/h)

Imagen
SPOILER - El siguiente texto está oculto. Presioná en la barra para mostrarlo.
Imagen
Imagen
Imagen
Imagen
Imagen


Volver a “Seguimientos Meteorológicos”

¿Quién está conectado?

Usuarios navegando por este Foro: arielmich, Carlitos12, Chuekin, pupy y 6 invitados